createdAt,value
2022-09-15T00:04:47.277Z,97269.09
2022-09-15T00:15:17.829Z,97261.01
2022-09-15T00:25:47.803Z,97257.41
2022-09-15T00:36:16.810Z,97246.04
2022-09-15T00:47:03.994Z,97238.30
2022-09-15T00:57:41.507Z,97221.27
2022-09-15T01:08:12.521Z,97205.36
2022-09-15T01:18:51.811Z,97196.56
2022-09-15T01:30:00.350Z,97193.77
2022-09-15T01:40:34.330Z,97194.98
2022-09-15T01:51:05.052Z,97180.91
2022-09-15T02:01:45.002Z,97175.17
2022-09-15T02:12:20.142Z,97168.00
2022-09-15T02:22:54.119Z,97161.06
2022-09-15T02:33:25.350Z,97165.02
2022-09-15T02:43:53.402Z,97164.98
2022-09-15T02:54:21.509Z,97154.85
2022-09-15T03:04:50.263Z,97145.31
2022-09-15T03:15:20.362Z,97131.49
2022-09-15T03:25:49.549Z,97138.46
2022-09-15T03:36:17.501Z,97135.95
2022-09-15T03:46:45.436Z,97129.93
2022-09-15T03:57:13.413Z,97126.69
2022-09-15T04:07:41.693Z,97120.48
2022-09-15T04:18:09.991Z,97114.01
2022-09-15T04:28:39.556Z,97115.74
2022-09-15T04:39:08.475Z,97107.73
2022-09-15T04:49:37.210Z,97100.55
2022-09-15T05:00:07.747Z,97103.04
2022-09-15T05:10:35.973Z,97100.85
2022-09-15T05:21:05.362Z,97099.38
2022-09-15T05:31:35.218Z,97086.35
2022-09-15T05:42:03.585Z,97085.46
2022-09-15T05:52:31.524Z,97099.64
2022-09-15T06:02:59.639Z,97112.08
2022-09-15T06:13:28.272Z,97120.02
2022-09-15T06:23:58.374Z,97132.64
2022-09-15T06:34:26.386Z,97156.63
2022-09-15T06:44:54.407Z,97184.27
2022-09-15T06:55:23.036Z,97218.44
2022-09-15T07:05:51.055Z,97267.55
2022-09-15T07:16:20.131Z,97296.08
2022-09-15T07:26:48.296Z,97323.15
2022-09-15T07:37:16.335Z,97361.77
2022-09-15T07:47:44.277Z,97389.09
2022-09-15T07:58:12.318Z,97415.38
2022-09-15T08:08:41.405Z,97436.77
2022-09-15T08:19:09.583Z,97468.66
2022-09-15T08:29:37.774Z,97477.54
2022-09-15T08:40:06.924Z,97471.29
2022-09-15T08:50:40.195Z,97482.15
2022-09-15T09:01:17.644Z,97494.44
2022-09-15T09:11:52.112Z,97496.14
2022-09-15T09:22:25.777Z,97497.70
2022-09-15T09:33:02.249Z,97499.04
2022-09-15T09:43:31.941Z,97499.42
2022-09-15T09:54:07.875Z,97496.07
2022-09-15T10:04:35.934Z,97488.30
2022-09-15T10:15:06.940Z,97478.29
2022-09-15T10:25:58.742Z,97479.09
2022-09-15T10:36:32.106Z,97475.88
2022-09-15T10:47:14.743Z,97472.05
2022-09-15T10:58:02.914Z,97467.23
2022-09-15T11:09:03.658Z,97455.16
2022-09-15T11:19:55.351Z,97445.02
2022-09-15T11:30:25.860Z,97430.85
2022-09-15T11:41:03.127Z,97428.04
2022-09-15T11:51:35.765Z,97411.13
2022-09-15T12:02:13.030Z,97406.02
2022-09-15T12:12:44.492Z,97396.95
2022-09-15T12:23:23.065Z,97383.08
2022-09-15T12:33:56.507Z,97384.80
2022-09-15T12:44:33.256Z,97389.83
2022-09-15T12:55:04.819Z,97398.69
2022-09-15T13:06:19.272Z,97391.11
2022-09-15T13:16:54.078Z,97382.90
2022-09-15T13:27:28.427Z,97369.18
2022-09-15T13:38:26.299Z,97374.61
2022-09-15T13:49:23.201Z,97372.90
2022-09-15T13:59:53.374Z,97371.41
2022-09-15T14:10:29.510Z,97371.64
2022-09-15T14:21:05.733Z,97361.82
2022-09-15T14:31:37.054Z,97351.24
2022-09-15T14:42:21.860Z,97345.42
2022-09-15T14:52:54.080Z,97325.63
2022-09-15T15:03:32.437Z,97313.31
2022-09-15T15:14:00.793Z,97310.38
2022-09-15T15:24:28.841Z,97317.34
2022-09-15T15:35:01.062Z,97340.96
2022-09-15T15:45:31.389Z,97368.23
2022-09-15T15:56:00.991Z,97383.67
2022-09-15T16:06:29.115Z,97388.38
2022-09-15T16:16:58.463Z,97403.11
2022-09-15T16:27:26.432Z,97408.48
2022-09-15T16:37:54.860Z,97418.99
2022-09-15T16:48:23.046Z,97432.20
2022-09-15T16:58:55.919Z,97439.75
2022-09-15T17:09:27.032Z,97438.64
2022-09-15T17:19:55.069Z,97438.09
2022-09-15T17:30:25.943Z,97438.55
2022-09-15T17:40:55.958Z,97445.67
2022-09-15T17:51:25.258Z,97438.66
2022-09-15T18:01:53.766Z,97446.33
2022-09-15T18:12:22.000Z,97454.77
2022-09-15T18:22:50.915Z,97464.77
2022-09-15T18:33:21.613Z,97454.59
2022-09-15T18:43:50.391Z,97460.06
2022-09-15T18:54:18.502Z,97469.13
2022-09-15T19:04:46.667Z,97478.52
2022-09-15T19:15:15.719Z,97487.41
2022-09-15T19:25:52.194Z,97492.85
2022-09-15T19:36:29.153Z,97494.48
2022-09-15T19:46:57.420Z,97506.42
2022-09-15T19:57:27.118Z,97502.64
2022-09-15T20:07:55.570Z,97512.02
2022-09-15T20:18:24.313Z,97516.09
2022-09-15T20:28:54.522Z,97511.23
2022-09-15T20:39:24.565Z,97511.15
2022-09-15T20:49:53.359Z,97519.36
2022-09-15T21:00:22.287Z,97524.69
2022-09-15T21:10:51.032Z,97546.46
2022-09-15T21:21:23.554Z,97564.09
2022-09-15T21:31:52.208Z,97568.43
2022-09-15T21:42:20.696Z,97585.19
2022-09-15T21:52:49.210Z,97594.81
2022-09-15T22:03:18.760Z,97603.08
2022-09-15T22:13:47.263Z,97603.85
2022-09-15T22:24:16.480Z,97618.75
2022-09-15T22:34:45.449Z,97626.95
2022-09-15T22:45:14.245Z,97633.36
2022-09-15T22:55:42.753Z,97637.77
2022-09-15T23:06:11.352Z,97646.16
2022-09-15T23:16:39.341Z,97645.65
2022-09-15T23:27:07.685Z,97642.02
2022-09-15T23:37:35.697Z,97660.01
2022-09-15T23:48:04.036Z,97668.48
2022-09-15T23:58:32.099Z,97664.86
